Time;durP1;ratioP1;P1;durP2;ratioP2;P2;SDS_P1;SDS_P2;PMS_P1;PMS_P2;Temp;Humidity;BMP_temperature;BMP_pressure;BME280_temperature;BME280_humidity;BME280_pressure;Samples;Min_cycle;Max_cycle;Signal;HPM_P1;HPM_P2
2022/04/28 00:00:51;;;;;;;11.70;9.57;;;5.70;99.90;;;;;;4917614;29;20426;-71
2022/04/28 00:03:17;;;;;;;11.83;9.80;;;5.70;99.90;;;;;;4917707;29;20228;-71
2022/04/28 00:05:43;;;;;;;12.70;8.97;;;5.70;99.90;;;;;;4917703;29;20458;-71
2022/04/28 00:08:09;;;;;;;10.90;9.80;;;5.60;99.90;;;;;;4917428;29;20210;-71
2022/04/28 00:10:36;;;;;;;16.97;9.20;;;5.60;99.90;;;;;;4917026;29;20658;-70
2022/04/28 00:13:03;;;;;;;10.67;9.10;;;5.50;99.90;;;;;;4917102;29;20218;-70
2022/04/28 00:15:29;;;;;;;10.77;9.50;;;5.50;99.90;;;;;;4917122;29;21155;-70
2022/04/28 00:17:55;;;;;;;19.00;9.10;;;5.50;99.90;;;;;;4917344;29;20511;-70
2022/04/28 00:20:21;;;;;;;9.87;8.87;;;5.50;99.90;;;;;;4916980;29;20175;-70
2022/04/28 00:22:46;;;;;;;11.40;9.57;;;5.40;99.90;;;;;;4917317;29;20461;-70
2022/04/28 00:25:12;;;;;;;13.70;9.10;;;5.40;99.90;;;;;;4917039;29;20172;-71
2022/04/28 00:27:37;;;;;;;11.30;9.17;;;5.40;99.90;;;;;;4917280;29;20183;-71
2022/04/28 00:30:04;;;;;;;10.43;8.80;;;5.30;99.90;;;;;;4917069;29;20180;-71
2022/04/28 00:32:30;;;;;;;11.60;9.77;;;5.30;99.90;;;;;;4916623;29;20236;-71
2022/04/28 00:34:56;;;;;;;15.47;9.30;;;5.30;99.90;;;;;;4916997;29;20463;-71
2022/04/28 00:37:22;;;;;;;10.80;9.07;;;5.30;99.90;;;;;;4916890;29;20222;-71
2022/04/28 00:39:48;;;;;;;9.90;8.90;;;5.30;99.90;;;;;;4916987;29;20600;-71
2022/04/28 00:42:15;;;;;;;12.67;10.10;;;5.20;99.90;;;;;;4916715;29;20950;-71
2022/04/28 00:44:41;;;;;;;11.13;9.57;;;5.20;99.90;;;;;;4916993;29;20848;-71
2022/04/28 00:47:08;;;;;;;12.67;10.33;;;5.30;99.90;;;;;;4916743;29;20418;-71
2022/04/28 00:52:19;;;;;;;11.00;9.57;;;5.20;99.90;;;;;;4916539;29;20481;-71
2022/04/28 00:54:46;;;;;;;13.47;10.63;;;5.20;99.90;;;;;;4916835;29;20469;-71
2022/04/28 00:57:13;;;;;;;14.97;10.00;;;5.10;99.90;;;;;;4916595;29;20423;-71
2022/04/28 00:59:39;;;;;;;11.00;9.90;;;5.10;99.90;;;;;;4916681;29;20927;-71
2022/04/28 02:35:26;;;;;;;10.20;8.60;;;4.10;99.90;;;;;;4971230;28;20473;-72
2022/04/28 02:37:52;;;;;;;9.80;8.50;;;4.10;99.90;;;;;;4968594;28;20550;-72
2022/04/28 02:40:17;;;;;;;12.00;9.33;;;4.10;99.90;;;;;;4952396;28;20250;-72
2022/04/28 02:42:43;;;;;;;10.33;8.97;;;4.10;99.90;;;;;;4953071;29;20842;-72
2022/04/28 02:45:09;;;;;;;11.50;8.50;;;4.10;99.90;;;;;;4953105;28;20649;-72
2022/04/28 02:47:35;;;;;;;11.13;9.03;;;4.10;99.90;;;;;;4955085;28;20196;-72
2022/04/28 02:50:01;;;;;;;11.73;10.13;;;4.00;99.90;;;;;;4957159;29;20446;-74
2022/04/28 02:52:27;;;;;;;10.40;8.67;;;4.00;99.90;;;;;;4954253;28;20227;-72
2022/04/28 02:54:52;;;;;;;12.33;9.30;;;3.90;99.90;;;;;;4953250;28;20544;-72
2022/04/28 02:57:18;;;;;;;11.00;9.27;;;4.00;99.90;;;;;;4952896;28;20199;-71
2022/04/28 02:59:43;;;;;;;12.67;9.40;;;4.00;99.90;;;;;;4953195;28;20187;-70
2022/04/28 03:02:09;;;;;;;13.97;8.77;;;4.00;99.90;;;;;;4952700;28;20208;-70
2022/04/28 03:04:34;;;;;;;12.00;8.80;;;4.00;99.90;;;;;;4952775;28;20556;-70
2022/04/28 03:12:28;;;;;;;12.50;9.03;;;3.80;99.90;;;;;;4952729;28;20446;-73
2022/04/28 03:14:54;;;;;;;9.53;8.63;;;3.80;99.90;;;;;;4952921;28;20460;-72
2022/04/28 03:17:19;;;;;;;11.10;9.00;;;3.80;99.90;;;;;;4952929;28;20184;-73
2022/04/28 03:19:45;;;;;;;14.47;7.73;;;3.80;99.90;;;;;;4952650;28;20518;-70
2022/04/28 03:22:10;;;;;;;10.83;8.77;;;3.80;99.90;;;;;;4952480;28;20208;-70
2022/04/28 03:24:36;;;;;;;10.00;8.33;;;3.80;99.90;;;;;;4952583;28;20495;-71
2022/04/28 03:27:02;;;;;;;13.97;9.53;;;3.80;99.90;;;;;;4953254;28;20230;-71
2022/04/28 03:29:27;;;;;;;10.47;8.60;;;3.80;99.90;;;;;;4952529;28;20189;-71
2022/04/28 03:31:53;;;;;;;9.90;8.23;;;3.70;99.90;;;;;;4954570;28;20695;-71
2022/04/28 03:34:23;;;;;;;11.10;8.40;;;3.70;99.90;;;;;;4956010;28;20207;-71
2022/04/28 03:36:51;;;;;;;10.30;8.47;;;3.70;99.90;;;;;;4956460;28;20550;-70
2022/04/28 03:39:17;;;;;;;10.77;8.20;;;3.70;99.90;;;;;;4956070;28;20404;-72
2022/04/28 03:41:43;;;;;;;11.90;8.17;;;3.60;99.90;;;;;;4956054;28;20591;-71
2022/04/28 03:44:09;;;;;;;11.50;8.30;;;3.60;99.90;;;;;;4956134;28;20447;-71
2022/04/28 03:46:35;;;;;;;9.10;8.10;;;3.60;99.90;;;;;;4956050;28;20844;-71
2022/04/28 03:49:01;;;;;;;10.53;8.40;;;3.60;99.90;;;;;;4955950;28;20417;-71
2022/04/28 03:51:26;;;;;;;9.37;8.27;;;3.60;99.90;;;;;;4955435;28;20200;-73
2022/04/28 03:53:52;;;;;;;12.67;8.40;;;3.60;99.90;;;;;;4956120;28;20215;-71
2022/04/28 03:56:18;;;;;;;10.50;9.40;;;3.60;99.90;;;;;;4955920;28;20267;-72
2022/04/28 03:58:45;;;;;;;10.40;9.00;;;3.50;99.90;;;;;;4956046;28;20181;-71
2022/04/28 04:01:10;;;;;;;10.23;8.43;;;3.50;99.90;;;;;;4955466;28;20441;-71
2022/04/28 04:03:36;;;;;;;10.30;8.07;;;3.50;99.90;;;;;;4955758;28;20456;-71
2022/04/28 04:06:02;;;;;;;11.17;8.80;;;3.50;99.90;;;;;;4955840;28;20182;-70
2022/04/28 04:08:27;;;;;;;15.57;9.53;;;3.50;99.90;;;;;;4955534;28;20179;-70
2022/04/28 04:10:53;;;;;;;10.97;9.20;;;3.50;99.90;;;;;;4955382;28;20231;-69
2022/04/28 04:13:18;;;;;;;12.53;8.93;;;3.50;99.90;;;;;;4955428;28;20193;-70
2022/04/28 04:15:44;;;;;;;11.33;9.00;;;3.50;99.90;;;;;;4955990;28;20175;-69
2022/04/28 04:18:10;;;;;;;9.70;8.70;;;3.50;99.90;;;;;;4955486;28;20219;-69
2022/04/28 04:20:35;;;;;;;21.53;10.07;;;3.50;99.90;;;;;;4954530;28;20249;-67
2022/04/28 04:23:04;;;;;;;10.40;9.30;;;3.60;99.90;;;;;;4955508;28;20190;-70
2022/04/28 04:25:29;;;;;;;11.10;7.90;;;3.60;99.90;;;;;;4955754;28;20230;-70
2022/04/28 04:27:55;;;;;;;16.33;10.40;;;3.50;99.90;;;;;;4955248;28;20504;-70
2022/04/28 04:33:04;;;;;;;13.17;10.20;;;3.60;99.90;;;;;;4954887;28;20730;-69
2022/04/28 04:35:30;;;;;;;11.73;9.33;;;3.60;99.90;;;;;;4954976;29;20414;-69
2022/04/28 04:37:55;;;;;;;11.93;9.30;;;3.70;99.90;;;;;;4955122;28;20182;-69
2022/04/28 04:40:21;;;;;;;10.90;8.97;;;3.70;99.90;;;;;;4954887;28;20595;-70
2022/04/28 04:42:47;;;;;;;13.00;10.10;;;3.70;99.90;;;;;;4953862;28;20199;-70
2022/04/28 04:45:12;;;;;;;12.87;10.33;;;3.80;99.90;;;;;;4954741;28;20281;-69
2022/04/28 04:47:38;;;;;;;15.30;10.30;;;3.80;99.90;;;;;;4954900;29;20181;-71
2022/04/28 04:50:06;;;;;;;14.97;9.90;;;3.90;99.90;;;;;;4954822;28;20176;-72
2022/04/28 04:52:32;;;;;;;17.90;9.93;;;3.90;99.90;;;;;;4954502;28;20729;-70
2022/04/28 04:54:57;;;;;;;14.90;10.33;;;4.00;99.90;;;;;;4954575;28;20547;-70
2022/04/28 04:57:24;;;;;;;13.00;9.87;;;4.10;99.90;;;;;;4954650;28;20181;-71
2022/04/28 04:59:49;;;;;;;14.80;11.60;;;4.10;99.90;;;;;;4954699;28;20301;-72
2022/04/28 05:02:15;;;;;;;13.73;10.40;;;4.30;99.90;;;;;;4954318;28;20437;-73
2022/04/28 05:04:40;;;;;;;18.33;11.37;;;4.40;99.90;;;;;;4954317;28;20646;-72
2022/04/28 05:07:06;;;;;;;14.17;10.23;;;4.50;99.90;;;;;;4956751;28;20223;-73
2022/04/28 05:09:32;;;;;;;15.83;11.07;;;4.50;99.90;;;;;;4957766;28;20187;-73
2022/04/28 05:11:58;;;;;;;14.40;9.90;;;4.70;99.90;;;;;;4957495;28;20198;-72
2022/04/28 05:14:24;;;;;;;15.57;10.33;;;4.80;99.90;;;;;;4953847;28;20465;-71
2022/04/28 05:16:49;;;;;;;13.20;9.73;;;5.30;99.90;;;;;;4954206;28;20420;-72
2022/04/28 05:19:15;;;;;;;9.50;8.20;;;7.10;99.90;;;;;;4954315;28;20189;-72
2022/04/28 05:21:41;;;;;;;10.70;7.00;;;9.20;99.90;;;;;;4953753;28;20195;-72
2022/04/28 05:24:07;;;;;;;8.03;6.77;;;11.40;99.90;;;;;;4954167;28;20175;-70
2022/04/28 05:26:33;;;;;;;6.80;6.10;;;13.30;99.90;;;;;;4953954;28;20649;-70
2022/04/28 05:28:58;;;;;;;7.70;6.90;;;14.30;99.90;;;;;;4954194;28;20263;-71
2022/04/28 05:31:24;;;;;;;8.17;7.37;;;15.00;99.90;;;;;;4949208;28;20932;-71
2022/04/28 05:33:49;;;;;;;6.80;6.20;;;15.40;99.90;;;;;;4951420;28;20212;-72
2022/04/28 05:36:16;;;;;;;9.40;6.53;;;15.90;99.90;;;;;;4950745;28;20603;-72
2022/04/28 05:38:43;;;;;;;10.30;7.33;;;16.60;99.90;;;;;;4953258;28;20176;-71
2022/04/28 05:41:08;;;;;;;11.80;6.63;;;17.10;99.90;;;;;;4951724;28;20440;-72
2022/04/28 05:46:20;;;;;;;10.60;7.20;;;17.50;99.90;;;;;;4953736;29;20231;-72
2022/04/28 05:48:46;;;;;;;8.67;7.53;;;17.90;99.90;;;;;;4952150;28;21125;-72
2022/04/28 05:51:12;;;;;;;8.50;7.70;;;18.10;99.90;;;;;;4953319;29;20611;-72
2022/04/28 05:53:38;;;;;;;9.63;7.90;;;18.50;99.90;;;;;;4953482;28;20464;-69
2022/04/28 05:56:04;;;;;;;8.30;7.40;;;18.80;99.90;;;;;;4953717;28;20413;-70
2022/04/28 05:58:30;;;;;;;8.00;7.20;;;19.10;99.90;;;;;;4953383;28;20840;-70
2022/04/28 06:00:55;;;;;;;8.87;8.00;;;19.30;99.90;;;;;;4953237;28;20436;-70
2022/04/28 06:03:20;;;;;;;9.47;8.60;;;19.40;99.90;;;;;;4953372;28;20185;-70
2022/04/28 06:05:46;;;;;;;9.60;7.80;;;19.00;99.90;;;;;;4941820;28;20563;-69
2022/04/28 06:08:11;;;;;;;9.87;8.87;;;19.50;99.90;;;;;;4934164;29;20188;-69
2022/04/28 06:10:37;;;;;;;10.10;8.10;;;19.30;99.90;;;;;;4933998;29;20584;-70
2022/04/28 06:13:02;;;;;;;10.87;9.20;;;19.40;99.90;;;;;;4934256;29;20269;-70
2022/04/28 06:15:28;;;;;;;13.73;10.23;;;19.30;99.90;;;;;;4934453;29;20597;-69
2022/04/28 06:17:54;;;;;;;9.63;7.80;;;18.70;99.90;;;;;;4934343;29;20185;-70
2022/04/28 06:20:19;;;;;;;11.23;9.77;;;18.30;99.90;;;;;;4933925;29;20176;-70
2022/04/28 06:22:46;;;;;;;13.17;9.17;;;17.80;99.90;;;;;;4934486;29;20205;-69
2022/04/28 06:25:12;;;;;;;13.60;10.23;;;17.30;99.90;;;;;;4934077;29;20551;-69
2022/04/28 06:27:38;;;;;;;12.20;9.47;;;16.30;99.90;;;;;;4934186;29;20470;-69
2022/04/28 06:30:05;;;;;;;10.53;9.63;;;15.90;99.90;;;;;;4934891;29;20425;-71
2022/04/28 06:32:30;;;;;;;13.30;11.17;;;15.90;99.90;;;;;;4933753;29;20216;-71
2022/04/28 06:34:56;;;;;;;12.90;10.17;;;16.30;99.90;;;;;;4934063;29;20460;-71
2022/04/28 06:37:22;;;;;;;11.47;10.13;;;16.50;99.90;;;;;;4934092;29;20586;-71
2022/04/28 06:39:48;;;;;;;14.23;9.50;;;16.20;99.90;;;;;;4934151;29;20255;-71
2022/04/28 06:42:13;;;;;;;11.83;10.50;;;16.10;99.90;;;;;;4933737;29;21041;-71
2022/04/28 06:44:39;;;;;;;11.13;10.07;;;15.70;99.90;;;;;;4933913;29;20184;-71
2022/04/28 06:47:05;;;;;;;14.90;10.70;;;15.70;99.90;;;;;;4934031;29;20730;-71
2022/04/28 06:49:31;;;;;;;12.53;9.90;;;15.80;99.90;;;;;;4933839;29;20238;-71
2022/04/28 06:51:56;;;;;;;13.10;11.70;;;16.00;99.90;;;;;;4933688;29;20252;-72
2022/04/28 06:54:22;;;;;;;19.17;10.30;;;16.10;99.90;;;;;;4933931;29;20469;-71
2022/04/28 06:56:47;;;;;;;12.20;10.07;;;16.20;99.90;;;;;;4934046;29;20169;-70
2022/04/28 06:59:13;;;;;;;11.83;8.93;;;16.40;99.90;;;;;;4934219;29;20177;-70
2022/04/28 07:01:39;;;;;;;15.03;9.87;;;16.20;99.90;;;;;;4933543;29;20198;-71
2022/04/28 07:04:05;;;;;;;15.80;8.73;;;16.70;99.90;;;;;;4933907;29;20189;-72
2022/04/28 07:06:30;;;;;;;10.90;9.23;;;16.90;99.90;;;;;;4935182;29;20178;-71
2022/04/28 07:08:56;;;;;;;13.00;7.37;;;17.00;99.90;;;;;;4945948;29;20184;-70
2022/04/28 07:11:23;;;;;;;9.73;7.80;;;17.10;99.90;;;;;;4956246;28;20196;-71
2022/04/28 07:13:49;;;;;;;8.70;8.00;;;17.30;99.90;;;;;;4956313;29;20355;-70
2022/04/28 07:16:14;;;;;;;9.33;7.50;;;17.60;99.90;;;;;;4959613;28;20933;-71
2022/04/28 07:18:40;;;;;;;11.10;8.23;;;17.80;99.90;;;;;;4957054;28;20185;-72
2022/04/28 07:21:05;;;;;;;9.67;8.23;;;17.70;99.90;;;;;;4956267;28;20571;-72
2022/04/28 07:23:31;;;;;;;7.90;7.30;;;17.80;99.90;;;;;;4956213;28;20172;-71
2022/04/28 07:25:56;;;;;;;10.00;8.03;;;17.80;99.90;;;;;;4956346;28;20177;-71
2022/04/28 07:28:22;;;;;;;8.50;7.63;;;18.00;99.90;;;;;;4955317;28;20239;-71
2022/04/28 07:30:48;;;;;;;11.30;8.05;;;18.40;99.90;;;;;;4955388;28;20461;-71
2022/04/28 07:33:13;;;;;;;8.43;7.27;;;18.50;99.90;;;;;;4955925;28;20581;-71
2022/04/28 07:35:39;;;;;;;7.97;7.13;;;18.70;99.90;;;;;;4956183;28;20705;-71
2022/04/28 07:38:05;;;;;;;8.63;7.13;;;18.80;99.90;;;;;;4956012;28;20272;-70
2022/04/28 07:40:32;;;;;;;8.10;7.10;;;18.90;99.90;;;;;;4955698;28;20208;-70
2022/04/28 07:42:57;;;;;;;7.13;6.50;;;18.90;99.90;;;;;;4956302;28;20841;-70
2022/04/28 07:45:23;;;;;;;8.37;7.47;;;19.00;99.90;;;;;;4955823;28;20504;-70
2022/04/28 07:47:49;;;;;;;7.30;6.60;;;19.10;99.90;;;;;;4955778;28;20184;-71
2022/04/28 07:50:15;;;;;;;11.60;7.33;;;19.10;99.90;;;;;;4955673;29;20448;-70
2022/04/28 07:52:41;;;;;;;8.73;7.83;;;19.50;99.90;;;;;;4955693;28;20828;-70
2022/04/28 07:55:08;;;;;;;7.50;6.80;;;19.30;99.90;;;;;;4955841;28;20464;-71
2022/04/28 07:57:34;;;;;;;8.30;7.50;;;19.40;99.90;;;;;;4955634;28;20891;-70
2022/04/28 07:59:59;;;;;;;7.40;6.70;;;19.20;99.90;;;;;;4955510;28;20491;-71
2022/04/28 08:02:26;;;;;;;7.33;6.63;;;19.20;99.90;;;;;;4955174;28;20193;-71
2022/04/28 08:04:52;;;;;;;8.30;7.30;;;19.00;99.90;;;;;;4955532;28;20188;-70
2022/04/28 08:07:18;;;;;;;8.77;7.90;;;18.80;99.90;;;;;;4955874;28;20423;-71
2022/04/28 08:09:43;;;;;;;7.30;6.67;;;18.90;99.90;;;;;;4956538;28;20252;-70
2022/04/28 08:12:09;;;;;;;9.40;7.37;;;19.20;99.90;;;;;;4956472;28;20693;-71
2022/04/28 08:14:35;;;;;;;9.73;7.20;;;19.50;99.90;;;;;;4955442;28;20687;-71
2022/04/28 08:17:00;;;;;;;7.80;7.03;;;19.10;99.90;;;;;;4956064;28;20184;-71
2022/04/28 08:19:26;;;;;;;6.70;6.10;;;19.40;99.90;;;;;;4956044;28;20312;-71
2022/04/28 08:21:52;;;;;;;7.80;5.87;;;20.00;99.90;;;;;;4955661;28;20441;-72
2022/04/28 08:24:17;;;;;;;6.43;4.87;;;20.20;99.90;;;;;;4955277;28;20185;-71
2022/04/28 08:26:43;;;;;;;7.23;5.80;;;19.80;99.90;;;;;;4955348;28;20595;-72
2022/04/28 08:29:09;;;;;;;6.07;5.50;;;19.90;99.90;;;;;;4954694;28;20177;-71
2022/04/28 08:31:43;;;;;;;5.63;4.47;;;19.60;99.90;;;;;;4954739;28;20981;-72
2022/04/28 08:34:09;;;;;;;5.03;4.63;;;19.90;99.90;;;;;;4955082;28;20725;-72
2022/04/28 08:36:35;;;;;;;5.30;4.90;;;19.80;99.90;;;;;;4955039;28;20427;-72
2022/04/28 08:39:00;;;;;;;4.87;4.50;;;20.00;99.90;;;;;;4954813;28;20416;-71
2022/04/28 08:41:32;;;;;;;4.90;4.50;;;20.30;99.90;;;;;;4954759;28;20188;-71
2022/04/28 08:44:01;;;;;;;5.03;4.47;;;20.70;99.90;;;;;;4955124;28;20204;-71
2022/04/28 08:49:12;;;;;;;6.83;5.23;;;20.60;99.90;;;;;;4954530;29;20467;-71
2022/04/28 08:51:39;;;;;;;5.90;4.90;;;20.60;99.90;;;;;;4954451;28;20444;-71
2022/04/28 08:54:05;;;;;;;5.73;4.70;;;20.50;99.90;;;;;;4954724;28;20904;-71
2022/04/28 08:56:33;;;;;;;5.07;4.57;;;21.00;99.90;;;;;;4953382;28;20455;-72
2022/04/28 08:58:59;;;;;;;4.70;4.30;;;21.20;99.90;;;;;;4954583;28;20949;-71
2022/04/28 09:01:27;;;;;;;7.33;4.30;;;21.70;99.90;;;;;;4953948;28;20437;-72
2022/04/28 09:03:56;;;;;;;4.37;4.00;;;21.60;99.90;;;;;;4954736;28;20665;-72
2022/04/28 09:06:34;;;;;;;4.43;3.70;;;21.80;99.20;;;;;;4954397;28;20786;-71
2022/04/28 09:09:00;;;;;;;9.13;3.90;;;22.30;99.90;;;;;;4954153;28;20444;-72
2022/04/28 09:11:28;;;;;;;4.47;4.17;;;22.20;95.10;;;;;;4954049;28;20503;-71
2022/04/28 09:14:09;;;;;;;4.50;4.20;;;22.40;98.40;;;;;;4954575;28;20459;-71
2022/04/28 09:16:46;;;;;;;3.17;2.87;;;22.60;94.90;;;;;;4954305;28;20427;-71
2022/04/28 09:19:23;;;;;;;3.10;2.90;;;22.70;92.20;;;;;;4953875;28;20412;-72
2022/04/28 09:21:52;;;;;;;3.50;3.20;;;22.90;93.40;;;;;;4954271;28;20807;-72
2022/04/28 09:24:18;;;;;;;5.03;3.30;;;22.70;90.70;;;;;;4955903;28;20913;-72
2022/04/28 09:26:44;;;;;;;4.40;4.00;;;22.60;85.50;;;;;;4955656;28;20789;-72
2022/04/28 09:29:12;;;;;;;3.77;2.90;;;22.10;91.70;;;;;;4953220;28;20685;-71
2022/04/28 09:31:39;;;;;;;5.10;2.80;;;22.40;88.50;;;;;;4953510;28;20604;-71
2022/04/28 09:34:07;;;;;;;3.30;3.00;;;22.00;89.20;;;;;;4953920;28;20522;-72
2022/04/28 09:36:33;;;;;;;3.33;3.10;;;22.00;89.40;;;;;;4953017;28;20424;-71
2022/04/28 09:38:58;;;;;;;8.30;3.50;;;22.20;89.90;;;;;;4953654;28;20993;-72
2022/04/28 09:44:12;;;;;;;3.20;2.80;;;22.40;86.10;;;;;;4954066;29;20255;-71
2022/04/28 09:46:44;;;;;;;4.73;3.10;;;22.70;88.60;;;;;;4953705;28;20413;-71
2022/04/28 09:49:12;;;;;;;3.03;2.83;;;23.00;85.60;;;;;;4953454;28;20427;-71
2022/04/28 09:51:40;;;;;;;3.20;3.00;;;22.90;83.00;;;;;;4953318;28;20444;-72
2022/04/28 09:54:08;;;;;;;3.40;3.10;;;22.40;81.10;;;;;;4953660;28;20822;-72
2022/04/28 09:56:35;;;;;;;3.83;3.00;;;22.40;80.80;;;;;;4953468;28;20463;-71
2022/04/28 09:59:01;;;;;;;2.60;2.40;;;22.10;79.40;;;;;;4953372;28;20409;-71
2022/04/28 10:01:31;;;;;;;4.27;3.10;;;22.30;82.20;;;;;;4952968;28;20460;-71
2022/04/28 10:03:57;;;;;;;3.30;3.00;;;22.70;84.50;;;;;;4954363;28;20424;-72
2022/04/28 10:06:24;;;;;;;3.30;2.57;;;23.60;84.40;;;;;;4953142;28;20417;-72
2022/04/28 10:08:52;;;;;;;4.10;3.20;;;24.10;81.20;;;;;;4953249;29;20424;-72
2022/04/28 10:11:22;;;;;;;3.23;2.90;;;23.70;81.40;;;;;;4953072;28;20440;-72
2022/04/28 10:13:50;;;;;;;5.93;2.83;;;23.90;77.30;;;;;;4953423;28;20467;-72
2022/04/28 10:16:19;;;;;;;3.70;3.47;;;24.00;75.10;;;;;;4953307;28;20416;-72
2022/04/28 10:19:08;;;;;;;3.80;3.30;;;23.70;73.90;;;;;;4953004;28;20412;-72
2022/04/28 10:22:06;;;;;;;3.43;3.13;;;23.00;76.50;;;;;;4952935;28;20436;-72
2022/04/28 10:33:02;;;;;;;3.20;3.00;;;23.20;76.50;;;;;;4953412;29;20479;-72
2022/04/28 10:35:39;;;;;;;2.87;2.67;;;22.60;74.70;;;;;;4952999;28;20466;-72
2022/04/28 10:38:31;;;;;;;3.80;2.90;;;22.60;78.40;;;;;;4953144;28;21043;-72
2022/04/28 10:41:03;;;;;;;2.67;2.47;;;23.20;77.30;;;;;;4953458;28;20439;-72
2022/04/28 10:43:31;;;;;;;3.20;2.47;;;23.00;72.90;;;;;;4956974;29;20416;-71
2022/04/28 10:46:23;;;;;;;3.10;2.80;;;22.90;75.60;;;;;;4957056;28;20778;-72
2022/04/28 10:48:53;;;;;;;3.27;2.87;;;23.40;79.90;;;;;;4956810;28;20560;-71
2022/04/28 10:51:26;;;;;;;3.30;3.10;;;23.50;73.50;;;;;;4956502;28;20428;-72
2022/04/28 10:54:04;;;;;;;12.63;3.33;;;23.10;74.20;;;;;;4957038;28;20456;-72
2022/04/28 10:56:54;;;;;;;4.00;2.93;;;22.60;75.20;;;;;;4956623;28;20427;-72
2022/04/28 10:59:32;;;;;;;3.50;3.30;;;22.80;76.20;;;;;;4956440;28;20408;-72
2022/04/28 11:02:18;;;;;;;4.83;2.43;;;22.80;75.60;;;;;;4956421;28;20432;-72
2022/04/28 11:04:49;;;;;;;3.17;2.87;;;22.60;77.40;;;;;;4956788;28;20439;-72
2022/04/28 11:07:21;;;;;;;3.67;3.40;;;22.70;78.80;;;;;;4956754;28;20443;-72
2022/04/28 11:09:57;;;;;;;4.13;3.27;;;22.90;80.50;;;;;;4956486;29;20419;-72
2022/04/28 11:12:23;;;;;;;4.23;3.83;;;23.00;78.10;;;;;;4955985;28;20528;-72
2022/04/28 11:15:00;;;;;;;7.63;2.90;;;22.40;73.90;;;;;;4956298;28;20571;-73
2022/04/28 11:17:28;;;;;;;2.47;2.37;;;22.20;76.60;;;;;;4956569;28;20544;-72
2022/04/28 11:19:54;;;;;;;3.10;2.87;;;22.30;77.00;;;;;;4956155;28;20420;-72
2022/04/28 11:22:21;;;;;;;3.30;3.00;;;22.40;73.70;;;;;;4955866;28;20494;-72
2022/04/28 11:24:48;;;;;;;3.50;2.50;;;22.30;75.00;;;;;;4939170;29;20443;-72
2022/04/28 11:27:24;;;;;;;3.80;3.30;;;22.20;76.20;;;;;;4956408;28;20474;-72
2022/04/28 11:29:51;;;;;;;2.77;2.53;;;22.40;78.00;;;;;;4955965;28;20424;-71
2022/04/28 11:32:17;;;;;;;2.40;2.20;;;22.20;76.10;;;;;;4955695;28;20447;-71
2022/04/28 11:34:45;;;;;;;2.67;2.50;;;22.20;78.80;;;;;;4955863;28;20829;-71
2022/04/28 11:37:24;;;;;;;9.00;3.27;;;22.00;75.60;;;;;;4956171;28;20448;-70
2022/04/28 11:39:52;;;;;;;3.87;2.90;;;21.80;79.90;;;;;;4955652;28;20424;-71
2022/04/28 11:42:18;;;;;;;4.03;3.10;;;21.70;76.00;;;;;;4955867;28;20440;-71
2022/04/28 11:44:46;;;;;;;3.47;3.17;;;21.60;74.60;;;;;;4955948;28;20408;-70
2022/04/28 11:47:12;;;;;;;3.17;2.83;;;21.20;74.80;;;;;;4955935;28;20420;-71
2022/04/28 11:49:40;;;;;;;2.90;2.70;;;21.00;75.50;;;;;;4955807;29;20424;-71
2022/04/28 11:52:19;;;;;;;3.07;2.83;;;21.30;79.70;;;;;;4955014;28;20432;-70
2022/04/28 11:54:56;;;;;;;3.57;3.07;;;21.60;80.70;;;;;;4955714;28;20455;-70
2022/04/28 11:57:22;;;;;;;2.80;2.60;;;21.50;77.00;;;;;;4955730;28;20510;-70
2022/04/28 11:59:48;;;;;;;3.07;2.80;;;21.60;78.80;;;;;;4955435;28;20413;-70
2022/04/28 12:02:36;;;;;;;3.20;2.93;;;21.80;77.30;;;;;;4955461;28;20455;-71
2022/04/28 12:05:06;;;;;;;3.30;3.10;;;21.30;76.20;;;;;;4957265;28;20452;-71
2022/04/28 12:07:34;;;;;;;3.20;2.20;;;21.00;76.20;;;;;;4957286;28;20416;-70
2022/04/28 12:15:29;;;;;;;2.97;2.77;;;20.80;76.10;;;;;;4955734;29;20415;-70
2022/04/28 12:20:55;;;;;;;2.83;2.63;;;20.60;75.50;;;;;;4955208;29;20200;-70
2022/04/28 12:23:41;;;;;;;2.30;2.10;;;20.50;76.40;;;;;;4955018;28;20405;-70
2022/04/28 12:26:08;;;;;;;2.90;2.70;;;20.50;77.20;;;;;;4953334;28;20925;-71
2022/04/28 12:28:42;;;;;;;2.90;2.70;;;20.50;79.30;;;;;;4964664;28;20419;-70
2022/04/28 12:31:12;;;;;;;3.13;2.70;;;20.40;77.70;;;;;;4959476;28;20559;-71
2022/04/28 12:33:39;;;;;;;4.40;2.60;;;20.60;80.80;;;;;;4954864;28;20482;-71
2022/04/28 12:36:07;;;;;;;2.27;2.07;;;20.70;80.50;;;;;;4961904;28;20523;-70
2022/04/28 12:38:35;;;;;;;3.73;2.93;;;20.70;75.40;;;;;;4952700;28;20447;-70
2022/04/28 12:41:16;;;;;;;3.13;2.83;;;20.50;75.50;;;;;;4952481;28;20447;-70
2022/04/28 12:43:46;;;;;;;4.03;2.90;;;20.30;78.70;;;;;;4973880;28;20489;-70
2022/04/28 12:46:13;;;;;;;2.90;2.30;;;20.30;77.80;;;;;;4974240;28;20462;-71
2022/04/28 12:48:39;;;;;;;3.00;2.50;;;20.10;76.20;;;;;;4973941;28;20827;-71
2022/04/28 12:51:18;;;;;;;3.83;2.37;;;20.20;77.60;;;;;;4973735;28;20447;-70
2022/04/28 12:53:49;;;;;;;3.87;2.70;;;20.20;76.70;;;;;;4973958;28;20212;-71
2022/04/28 12:56:17;;;;;;;2.60;2.40;;;20.10;76.20;;;;;;4974173;28;20768;-70
2022/04/28 12:58:48;;;;;;;2.63;2.43;;;20.10;76.20;;;;;;4973839;28;20547;-71
2022/04/28 13:01:19;;;;;;;2.87;2.70;;;20.10;76.60;;;;;;4973653;28;20427;-71
2022/04/28 13:04:05;;;;;;;2.50;2.40;;;20.10;78.60;;;;;;4973081;28;20420;-71
2022/04/28 13:06:33;;;;;;;3.17;2.90;;;20.10;74.90;;;;;;4973684;28;20423;-71
2022/04/28 13:09:00;;;;;;;6.43;2.80;;;20.00;74.80;;;;;;4973339;28;20419;-70
2022/04/28 13:11:28;;;;;;;2.57;2.37;;;19.90;75.00;;;;;;4973142;28;20494;-70
2022/04/28 13:13:55;;;;;;;3.50;3.20;;;19.90;75.10;;;;;;4973427;28;20971;-71
2022/04/28 13:16:21;;;;;;;3.10;2.90;;;19.90;76.00;;;;;;4973456;28;20439;-71
2022/04/28 13:18:47;;;;;;;4.57;2.40;;;20.00;79.80;;;;;;4973109;28;20470;-71
2022/04/28 13:21:14;;;;;;;6.93;2.70;;;20.20;79.30;;;;;;4973033;28;20441;-71
2022/04/28 13:23:40;;;;;;;7.23;3.10;;;20.20;77.00;;;;;;4973306;28;20435;-70
2022/04/28 13:26:06;;;;;;;3.07;2.57;;;20.10;76.40;;;;;;4973423;28;20838;-71
2022/04/28 13:28:32;;;;;;;2.60;2.50;;;20.10;77.90;;;;;;4973298;28;20584;-70
2022/04/28 13:30:57;;;;;;;2.53;2.40;;;19.90;77.60;;;;;;4972815;28;20463;-70
2022/04/28 13:33:23;;;;;;;2.00;1.90;;;20.00;78.00;;;;;;4973203;28;20700;-71
2022/04/28 13:35:49;;;;;;;2.90;2.70;;;20.00;77.20;;;;;;4972577;28;20187;-71
2022/04/28 13:38:14;;;;;;;4.63;2.83;;;20.10;78.30;;;;;;4953614;28;20184;-70
2022/04/28 13:40:40;;;;;;;2.70;2.50;;;20.10;77.20;;;;;;4953321;28;20173;-70
2022/04/28 13:43:06;;;;;;;4.43;2.50;;;19.90;75.80;;;;;;4954041;28;20181;-71
2022/04/28 13:45:31;;;;;;;6.03;2.33;;;19.70;76.30;;;;;;4952796;28;20176;-70
2022/04/28 13:47:57;;;;;;;2.93;2.30;;;19.60;75.90;;;;;;4953669;28;20184;-70
2022/04/28 13:50:23;;;;;;;2.43;2.20;;;19.70;75.80;;;;;;4953553;28;20261;-71
2022/04/28 13:52:49;;;;;;;2.40;2.20;;;19.80;77.80;;;;;;4953143;28;20283;-70
2022/04/28 13:55:16;;;;;;;2.73;2.50;;;19.90;78.00;;;;;;4952177;29;21004;-70
2022/04/28 13:57:41;;;;;;;2.50;2.10;;;19.90;76.90;;;;;;4953437;28;20506;-70
2022/04/28 14:00:08;;;;;;;2.77;2.47;;;20.00;79.30;;;;;;4953387;28;20456;-71
2022/04/28 14:02:33;;;;;;;2.30;2.10;;;19.90;75.40;;;;;;4953140;28;20199;-70
2022/04/28 14:04:59;;;;;;;2.40;2.30;;;19.90;77.80;;;;;;4953365;28;20819;-71
2022/04/28 14:07:25;;;;;;;6.37;3.30;;;20.00;78.40;;;;;;4953296;28;20181;-70
2022/04/28 14:09:52;;;;;;;12.17;3.17;;;19.90;76.20;;;;;;4953136;28;20196;-71
2022/04/28 14:12:17;;;;;;;6.90;3.40;;;19.70;75.00;;;;;;4947765;28;20468;-71
2022/04/28 14:14:43;;;;;;;3.73;2.77;;;19.60;76.20;;;;;;4943629;29;20456;-71
2022/04/28 14:17:09;;;;;;;4.20;3.40;;;19.60;77.90;;;;;;4941952;28;20194;-72
2022/04/28 14:19:35;;;;;;;2.77;2.57;;;19.60;78.00;;;;;;4942688;28;20192;-71
2022/04/28 14:22:04;;;;;;;2.60;2.40;;;19.60;78.40;;;;;;4941619;28;20858;-70
2022/04/28 14:24:30;;;;;;;3.23;2.50;;;19.60;77.70;;;;;;4942061;28;20252;-71
2022/04/28 14:26:55;;;;;;;4.30;3.20;;;19.70;78.00;;;;;;4944113;28;20424;-71
2022/04/28 14:29:21;;;;;;;2.53;2.43;;;19.60;75.10;;;;;;4942485;28;20440;-72
2022/04/28 14:31:47;;;;;;;3.10;2.80;;;19.60;78.00;;;;;;4942205;29;20575;-71
2022/04/28 14:34:12;;;;;;;6.83;2.97;;;19.60;76.40;;;;;;4944636;29;20201;-72
2022/04/28 14:36:38;;;;;;;3.03;2.17;;;19.60;77.80;;;;;;4946853;28;20421;-71
2022/04/28 14:39:04;;;;;;;5.23;3.43;;;19.60;77.70;;;;;;4952802;28;20179;-72
2022/04/28 14:41:29;;;;;;;3.13;2.83;;;19.60;77.90;;;;;;4952591;28;20900;-71
2022/04/28 14:43:55;;;;;;;3.20;2.90;;;19.40;76.90;;;;;;4953104;28;20180;-71
2022/04/28 14:46:20;;;;;;;3.33;2.60;;;19.30;76.80;;;;;;4950057;28;20304;-72
2022/04/28 14:54:14;;;;;;;3.30;3.03;;;19.40;78.10;;;;;;4932821;29;20907;-70
2022/04/28 14:56:40;;;;;;;3.73;2.63;;;19.30;77.20;;;;;;4932894;29;20450;-70
2022/04/28 14:59:05;;;;;;;2.60;2.40;;;19.30;77.80;;;;;;4933432;29;20177;-70
2022/04/28 15:01:31;;;;;;;2.77;2.57;;;19.30;79.20;;;;;;4933175;29;20201;-70